Date,TemperatureHighF,TemperatureAvgF,TemperatureLowF,DewpointHighF,DewpointAvgF,DewpointLowF,HumidityHigh,HumidityAvg,HumidityLow,PressureMaxIn,PressureMinIn,WindSpeedMaxMPH,WindSpeedAvgMPH,GustSpeedMaxMPH,PrecipitationSumIn
2013-1-1,11.4,2.0,-5.9,2.8,-3.2,-10.5,88,79,65,30.21,30.10,5,1,7,0.00
2013-1-2,22.9,17.3,7.2,15.7,10.9,2.8,86,76,58,30.10,29.99,5,1,8,0.00
2013-1-3,24.8,19.3,9.9,19.5,15.1,6.1,87,83,79,30.14,29.99,8,2,14,0.00
2013-1-4,26.9,15.3,7.4,18.4,10.4,3.0,91,81,69,30.13,30.01,6,2,10,0.00
2013-1-5,34.0,22.0,6.9,32.2,19.1,3.9,96,89,76,30.15,29.78,8,3,12,0.01
2013-1-6,33.7,23.1,9.9,31.1,18.5,7.6,92,83,75,30.20,29.78,12,4,20,0.00
2013-1-7,33.5,22.7,9.5,24.9,17.8,7.2,92,82,67,30.19,29.95,13,4,18,0.00
2013-1-8,36.8,28.8,17.5,31.5,25.2,16.3,98,87,73,30.03,29.82,9,2,15,0.03
2013-1-9,38.3,31.1,17.2,31.6,25.0,13.8,90,78,59,30.36,29.82,8,3,18,0.03
2013-1-10,39.9,28.5,14.4,34.9,24.7,12.3,99,86,68,30.41,29.80,7,1,18,0.24
2013-1-11,42.5,38.3,34.4,42.5,38.2,34.4,100,100,96,29.80,29.50,7,2,15,0.16
2013-1-12,43.5,33.7,22.2,42.9,28.3,15.1,100,80,67,29.92,29.49,12,5,24,0.00
2013-1-13,22.4,15.7,11.8,15.7,8.1,3.6,76,71,63,30.14,29.83,10,5,20,0.00
2013-1-14,22.2,13.3,6.9,11.6,6.6,2.0,89,75,59,30.39,30.14,9,1,15,0.00
2013-1-15,27.6,17.6,8.6,16.7,11.6,5.8,91,78,58,30.36,30.00,8,2,14,0.00
2013-1-16,31.9,25.4,15.6,28.9,19.5,10.1,90,78,63,30.00,29.68,9,4,16,0.00
2013-1-17,25.2,17.9,13.5,12.8,6.6,-2.4,74,61,45,30.33,30.00,10,3,18,0.00
2013-1-18,38.3,27.4,9.5,31.9,21.8,4.5,87,79,72,30.34,29.72,15,5,24,0.00
2013-1-19,42.6,33.9,11.9,34.2,27.5,-0.7,91,78,42,29.85,29.53,21,6,33,0.00
2013-1-20,12.4,8.3,4.8,0.2,-2.4,-3.9,70,61,48,30.23,29.86,21,6,33,0.00
2013-1-21,8.1,0.3,-5.6,1.5,-9.6,-15.3,78,63,51,30.25,30.08,14,6,22,0.00
2013-1-22,4.5,-1.9,-7.2,-5.5,-11.8,-16.6,74,62,52,30.33,30.24,8,3,15,0.00
2013-1-23,18.0,10.0,1.1,12.7,2.6,-6.4,87,72,59,30.37,30.03,16,4,27,0.00
2013-1-24,15.4,5.9,-1.8,8.0,-2.7,-8.7,73,67,59,30.61,30.30,10,2,17,0.00
2013-1-25,24.3,18.8,13.1,17.1,12.2,5.4,87,75,59,30.30,29.86,9,4,15,0.00
2013-1-26,22.7,14.8,5.6,13.4,7.4,0.9,81,72,62,30.33,30.12,6,1,12,0.00
2013-1-27,32.2,27.5,21.8,32.0,22.8,13.0,99,83,66,30.27,29.78,6,2,14,0.00
2013-1-28,36.6,33.6,30.7,33.8,32.1,29.3,100,94,83,29.87,29.68,6,1,13,0.22
2013-1-29,50.1,40.1,34.4,50.1,40.0,33.0,100,100,90,29.68,29.40,12,3,17,1.11
2013-1-30,35.0,26.3,14.8,35.0,25.4,11.1,100,96,85,29.51,29.23,14,9,21,0.14
2013-1-31,14.8,8.6,0.7,10.9,2.6,-6.2,85,76,67,30.07,29.51,13,7,21,0.00
2013-2-1,4.8,0.1,-5.4,0.8,-7.1,-12.8,83,71,62,30.27,30.07,8,3,14,0.00
2013-2-2,8.6,4.4,-2.7,1.6,-1.7,-7.4,85,76,60,30.09,29.98,9,2,12,0.00
2013-2-3,16.2,9.9,-1.4,9.8,3.9,-5.8,86,77,64,29.98,29.90,12,2,17,0.00
2013-2-4,13.5,9.7,2.6,10.1,3.8,-3.2,88,77,59,29.97,29.89,10,2,13,0.00
2013-2-5,27.2,17.0,0.3,22.6,11.8,-4.5,88,80,70,30.04,29.71,9,3,17,0.00
2013-2-6,31.0,16.6,-3.1,27.3,11.4,-7.5,92,80,64,30.17,30.00,6,1,12,0.00
2013-2-7,34.3,29.5,20.5,32.3,28.2,18.5,99,95,86,30.03,29.85,17,5,25,0.01
2013-2-8,21.6,15.6,-2.6,19.2,11.2,-6.7,93,83,72,30.33,30.01,16,6,24,0.00
2013-2-9,30.4,20.1,-5.2,24.7,16.5,-9.8,95,86,75,30.34,30.02,9,2,14,0.02
2013-2-10,39.6,32.8,20.3,39.6,31.7,18.8,100,96,86,30.02,29.29,9,3,25,0.69
2013-2-11,36.9,30.8,25.7,35.3,26.3,20.1,94,83,71,29.89,29.28,14,7,23,0.01
2013-2-12,28.7,23.5,18.1,20.4,18.0,15.0,94,80,66,29.99,29.78,8,3,16,0.00
2013-2-13,37.6,27.5,15.3,29.3,23.6,13.7,96,86,68,29.78,29.59,7,1,9,0.00
2013-2-14,34.6,31.6,25.0,33.2,28.2,21.9,97,88,72,29.92,29.47,12,4,22,0.07
2013-2-15,25.0,16.8,10.2,20.8,7.3,1.4,84,66,51,30.14,29.92,12,4,18,0.00
2013-2-16,14.4,8.8,-2.0,2.3,-1.4,-8.1,76,63,47,30.14,30.08,9,3,17,0.00
2013-2-17,23.9,11.7,-5.6,14.6,2.0,-10.7,82,66,50,30.17,29.88,6,1,12,0.00
2013-2-18,44.3,32.9,23.9,35.9,26.3,14.5,100,77,64,29.88,29.35,7,2,17,0.04
2013-2-19,25.6,12.6,6.5,23.4,7.0,-3.4,93,78,63,30.10,29.43,12,6,20,0.00
2013-2-20,21.3,12.0,3.4,10.7,3.0,-3.8,75,67,59,30.33,30.11,8,4,15,0.00
2013-2-21,25.3,16.9,5.6,23.2,13.1,1.4,96,85,72,30.39,30.04,15,4,23,0.00
2013-2-22,34.1,27.4,22.2,32.0,25.5,19.5,96,93,82,30.03,29.71,16,2,23,0.06
2013-2-23,34.6,26.1,15.2,24.1,20.7,12.5,89,80,64,29.84,29.74,6,2,10,0.00
2013-2-24,34.3,23.2,15.2,25.4,18.4,12.4,92,82,66,30.07,29.85,3,1,7,0.00
2013-2-25,39.6,26.7,12.1,27.5,21.1,9.7,94,80,60,30.10,29.98,3,1,7,0.00
2013-2-26,32.7,29.4,25.0,29.3,26.1,22.5,98,88,74,29.99,29.58,20,9,29,0.00
2013-2-27,31.5,29.6,27.3,30.5,28.5,26.1,100,95,92,29.71,29.55,16,11,24,0.00
2013-2-28,32.1,29.6,23.0,30.8,25.3,18.0,98,84,73,30.07,29.71,15,9,21,0.00
2013-3-1,24.5,20.1,9.2,19.3,15.2,6.4,91,81,70,30.20,30.06,14,5,20,0.00
2013-3-2,22.2,12.9,2.4,13.6,6.8,-0.8,87,76,64,30.20,30.11,10,3,16,0.00
2013-3-3,22.7,9.4,-2.8,9.6,1.6,-7.2,86,72,46,30.12,30.05,6,1,7,0.00
2013-3-4,32.4,20.2,1.8,24.3,14.0,-2.8,87,77,64,30.09,30.00,9,3,16,0.00
2013-3-5,29.7,26.8,23.8,27.2,24.1,22.2,98,90,75,30.03,29.83,16,6,24,0.01
2013-3-6,31.8,27.9,24.2,25.4,23.1,18.6,90,82,74,30.23,30.03,10,5,18,0.02
2013-3-7,29.3,20.3,5.6,20.2,14.5,2.8,91,78,65,30.37,30.23,5,0,6,0.00
2013-3-8,39.6,26.1,8.8,28.3,19.9,5.9,94,78,61,30.40,30.21,6,2,12,0.00
2013-3-9,44.1,35.2,27.0,35.7,30.3,23.4,98,83,63,30.21,29.71,6,2,16,0.12
2013-3-10,38.3,36.2,33.5,38.3,36.0,33.2,100,99,96,29.72,29.55,16,5,26,0.40
2013-3-11,33.4,32.1,28.7,33.2,31.3,22.4,100,97,77,29.66,29.45,10,4,18,0.65
2013-3-12,32.4,28.1,23.8,25.5,21.8,14.4,94,77,65,29.93,29.66,13,5,23,0.01
2013-3-13,30.7,23.7,18.0,15.3,12.3,5.3,81,63,36,30.23,29.93,13,5,21,0.00
2013-3-14,36.6,25.8,12.8,26.3,18.4,9.0,93,74,54,30.23,29.98,6,1,8,0.00
2013-3-15,34.6,29.7,25.0,33.6,27.8,23.6,98,93,83,29.98,29.75,12,2,18,0.01
2013-3-16,29.0,23.9,18.6,26.0,18.6,13.5,97,81,63,30.07,29.75,13,6,21,0.00
2013-3-17,28.7,20.2,13.5,17.1,11.2,4.8,82,68,58,30.22,29.96,10,4,15,0.00
2013-3-18,36.2,27.2,17.0,32.3,23.4,11.0,93,85,73,29.96,29.48,10,2,22,0.18
2013-3-19,27.8,18.6,12.8,12.7,8.7,6.2,79,66,48,29.97,29.61,10,5,22,0.00
2013-3-20,19.5,13.3,7.4,6.5,1.7,-3.3,64,59,51,30.00,29.95,12,5,17,0.00
2013-3-21,27.6,16.6,8.6,12.5,6.6,0.2,78,65,50,30.00,29.94,7,2,10,0.00
2013-3-22,31.8,18.9,5.9,18.3,10.5,1.5,86,71,52,30.02,29.97,5,1,6,0.00
2013-3-23,34.8,23.7,12.9,21.9,15.8,9.2,89,73,53,30.08,30.01,6,1,8,0.00
2013-3-24,30.4,28.6,27.0,27.9,24.5,21.4,94,85,73,30.01,29.72,14,7,23,0.00
2013-3-25,33.8,28.5,21.6,26.7,22.3,17.3,85,78,68,30.02,29.76,15,7,21,0.00
2013-3-26,38.9,33.2,28.5,27.8,24.7,22.0,79,71,60,30.16,30.02,9,3,15,0.00
2013-3-27,41.1,34.2,25.8,26.7,23.8,19.9,82,66,46,30.23,30.16,6,1,8,0.00
2013-3-28,43.3,32.2,23.6,24.8,20.9,18.0,80,64,38,30.27,30.20,3,1,6,0.00
2013-3-29,43.8,32.7,20.6,27.7,22.9,18.1,92,69,44,30.26,30.15,3,0,5,0.00
2013-3-30,51.0,39.4,29.5,39.4,31.8,23.1,96,75,58,30.15,29.72,8,2,12,0.01
2013-3-31,45.2,37.9,31.8,39.3,33.0,18.8,100,84,54,29.81,29.62,12,3,23,0.01
2013-4-1,33.2,28.9,24.7,21.1,15.1,10.8,71,56,41,30.10,29.82,10,6,20,0.00
2013-4-2,36.5,29.5,23.4,18.8,15.4,10.9,72,56,35,30.24,30.10,8,4,15,0.00
2013-4-3,42.3,31.5,20.3,22.5,17.7,10.8,86,59,35,30.40,30.19,6,1,10,0.00
2013-4-4,54.2,40.4,28.4,36.0,28.0,20.5,76,62,44,30.18,29.86,8,4,14,0.00
2013-4-5,43.1,36.4,29.1,28.3,24.5,19.8,81,63,40,30.16,29.95,8,3,14,0.00
2013-4-6,57.2,43.9,32.1,48.1,34.8,21.4,98,71,50,30.07,29.43,8,3,21,0.01
2013-4-7,50.7,41.0,35.2,47.0,34.6,30.9,93,78,59,29.86,29.45,14,4,22,0.01
2013-4-8,46.5,40.5,34.6,43.6,37.7,30.3,99,90,79,29.92,29.55,14,4,22,0.30
2013-4-9,39.3,37.1,34.9,39.3,36.6,33.4,100,98,92,29.96,29.81,14,6,23,0.80
2013-4-10,37.0,33.9,31.3,35.2,32.6,30.2,100,95,78,30.04,29.83,15,6,24,1.16
2013-4-11,37.5,35.5,34.1,37.2,34.4,31.7,100,96,88,29.87,29.49,26,10,41,0.12
2013-4-12,38.6,34.8,32.9,35.7,33.3,29.8,100,94,83,29.70,29.44,9,3,15,0.05
2013-4-13,37.0,33.9,29.4,30.6,28.1,24.6,96,80,66,29.92,29.68,10,3,16,0.05
2013-4-14,51.7,37.0,28.7,45.7,32.9,25.6,92,85,74,29.94,29.49,12,4,29,0.04
2013-4-15,59.2,46.7,39.1,51.1,42.2,36.1,100,86,49,29.86,29.46,12,3,24,0.51
2013-4-16,49.3,40.8,33.4,35.6,32.4,29.1,88,73,52,30.21,29.85,13,4,20,0.00
2013-4-17,42.2,39.5,36.5,41.0,36.4,32.6,100,89,73,30.25,29.80,16,5,25,0.62
2013-4-18,53.6,44.1,39.2,53.6,43.6,35.1,100,98,83,29.81,29.20,13,5,24,0.52
2013-4-19,39.0,35.0,29.8,35.0,28.2,19.8,92,76,57,29.81,29.23,16,8,28,0.01
2013-4-20,42.6,33.4,26.4,24.7,16.9,9.2,77,53,26,30.32,29.82,10,4,18,0.00
2013-4-21,51.9,40.3,30.1,33.4,27.8,24.0,81,62,38,30.42,30.17,9,3,23,0.00
2013-4-22,67.9,53.1,41.8,44.5,38.4,33.3,78,59,38,30.17,29.90,7,2,13,0.00
2013-4-23,51.6,42.8,37.2,47.5,36.1,28.4,94,77,58,29.90,29.75,12,5,20,0.00
2013-4-24,52.3,41.7,32.5,32.7,26.6,18.4,80,57,32,29.94,29.87,10,4,24,0.00
2013-4-25,51.2,43.2,35.5,36.8,32.5,27.7,96,67,41,30.18,29.86,10,4,20,0.01
2013-4-26,68.8,53.6,36.8,48.0,39.6,29.8,81,61,43,30.18,30.02,13,5,20,0.00
2013-4-27,68.3,56.2,45.8,52.3,47.2,43.6,94,74,51,30.11,29.91,6,2,9,0.00
2013-4-28,72.7,58.2,42.5,50.9,43.9,38.7,92,63,35,29.90,29.67,6,1,9,0.00
2013-4-29,71.3,60.2,51.1,58.2,53.5,49.4,96,79,55,29.72,29.60,8,2,12,0.01
2013-4-30,82.8,69.4,57.6,62.9,56.4,49.8,100,68,34,29.74,29.55,15,6,23,0.31
2013-5-1,77.9,65.3,53.1,60.3,52.3,43.3,78,64,47,30.11,29.75,12,4,20,0.00
2013-5-2,52.9,44.6,37.0,45.7,38.9,33.8,94,81,67,30.19,30.10,16,10,23,0.36
2013-5-3,47.7,40.8,35.0,46.8,39.9,33.5,100,97,88,30.14,29.93,15,7,23,0.35
2013-5-4,70.4,56.6,45.4,56.3,48.4,43.5,96,76,45,29.96,29.90,9,4,16,0.02
2013-5-5,71.8,59.2,44.5,51.5,46.6,42.8,97,66,36,29.97,29.89,9,3,15,0.00
2013-5-6,73.3,59.3,44.6,51.6,44.6,36.4,91,62,27,29.97,29.88,8,2,12,0.00
2013-5-7,78.1,64.3,51.3,47.6,42.9,36.9,82,50,24,29.96,29.87,6,1,12,0.00
2013-5-8,80.5,64.9,47.0,55.3,46.9,38.8,89,57,24,29.92,29.83,3,0,8,0.00
2013-5-9,69.8,58.3,45.7,60.3,52.8,44.9,99,83,61,29.84,29.78,15,4,24,0.69
2013-5-10,52.0,44.3,39.9,47.2,42.5,38.7,100,93,80,29.90,29.78,16,7,25,0.73
2013-5-11,51.5,46.5,41.1,51.0,37.7,24.5,100,74,36,29.93,29.69,15,5,32,0.01
2013-5-12,52.5,43.5,35.8,34.1,27.0,21.7,86,54,31,30.02,29.94,10,5,21,0.00
2013-5-13,63.2,47.2,29.4,38.6,33.0,24.7,99,63,29,30.09,29.82,6,1,17,0.00
2013-5-14,81.2,66.8,48.9,58.8,49.5,35.4,72,55,34,29.81,29.41,9,2,15,0.00
2013-5-15,75.1,68.6,54.8,60.7,46.9,35.5,73,48,24,29.72,29.42,13,2,20,0.00
2013-5-16,80.3,64.7,49.6,56.6,47.2,32.6,90,56,32,29.87,29.72,10,2,20,0.00
2013-5-17,58.9,53.8,47.7,52.7,45.3,32.6,100,76,37,30.02,29.86,12,2,18,0.67
2013-5-18,79.8,64.7,50.8,67.1,56.7,47.6,94,76,57,29.96,29.82,5,1,13,0.00
2013-5-19,84.1,71.3,59.5,67.3,62.0,57.2,94,74,50,29.83,29.53,8,1,29,0.00
2013-5-20,81.8,72.7,61.2,63.9,61.6,57.0,100,70,48,29.67,29.51,7,2,20,0.10
2013-5-21,78.3,70.0,59.0,65.6,60.7,57.0,93,73,50,29.57,29.48,7,2,14,0.00
2013-5-22,63.9,58.8,52.8,61.5,57.7,52.8,100,96,82,29.68,29.51,8,3,16,1.40
2013-5-23,58.3,51.3,42.1,52.6,44.5,36.9,100,79,46,30.22,29.69,14,6,24,0.19
2013-5-24,59.9,48.6,35.2,45.3,38.8,33.4,100,71,43,30.36,30.21,5,1,9,0.00
2013-5-25,63.7,54.1,45.1,43.4,38.8,35.5,79,57,40,30.30,30.19,6,1,12,0.00
2013-5-26,66.8,55.8,39.9,47.0,42.3,37.3,94,63,42,30.21,30.07,6,1,14,0.00
2013-5-27,55.9,53.0,50.4,52.2,47.8,39.6,100,84,60,30.08,29.80,8,2,20,0.03
2013-5-28,70.9,58.5,50.4,66.2,57.4,50.4,100,96,84,29.80,29.60,6,1,9,0.31
2013-5-29,82.0,69.8,59.3,68.2,63.9,59.3,100,83,59,29.78,29.67,7,1,13,0.01
2013-5-30,83.8,72.5,63.5,71.0,66.9,62.8,100,84,59,29.78,29.58,12,2,23,0.48
2013-5-31,76.5,68.9,63.2,68.4,64.2,62.1,100,86,68,29.65,29.56,7,3,17,0.01
2013-6-1,78.6,70.1,62.3,67.3,63.5,56.9,100,81,59,29.56,29.47,7,2,15,0.02
2013-6-2,63.9,55.2,47.9,59.7,45.8,41.0,92,72,52,29.92,29.55,10,3,22,0.00
2013-6-3,69.8,58.4,42.3,49.9,46.0,41.2,100,66,39,29.99,29.90,2,0,8,0.00
2013-6-4,70.3,59.5,51.0,56.9,50.6,45.9,95,73,52,30.07,29.97,9,2,15,0.07
2013-6-5,63.5,54.6,50.8,56.8,51.0,47.1,99,88,68,30.05,29.87,6,1,14,0.13
2013-6-6,60.5,54.7,51.6,55.3,52.2,47.1,100,91,80,29.87,29.83,6,2,13,0.27
2013-6-7,70.4,59.4,51.1,56.0,50.9,46.9,92,75,45,29.90,29.82,5,0,9,0.01
2013-6-8,72.5,61.1,50.5,55.6,51.7,46.4,99,74,41,29.90,29.82,5,0,8,0.00
2013-6-9,79.0,66.7,55.6,62.4,56.3,48.8,84,70,53,29.91,29.70,10,2,20,0.00
2013-6-10,78.8,69.8,60.1,66.2,62.5,58.1,95,79,58,29.73,29.66,3,0,8,0.00
2013-6-11,81.9,71.5,60.1,68.1,64.0,59.6,100,79,54,29.80,29.68,5,0,7,0.00
2013-6-12,75.6,67.8,59.5,68.8,65.0,58.1,100,91,73,29.79,29.51,14,2,25,1.33
2013-6-13,74.2,65.9,58.3,61.8,57.8,55.8,94,76,54,29.96,29.63,9,3,16,0.00
2013-6-14,76.5,65.1,52.6,61.1,55.4,50.3,100,73,50,30.03,29.89,7,0,13,0.00
2013-6-15,79.9,68.0,57.0,71.0,63.3,49.0,100,86,66,29.96,29.69,7,1,12,0.85
2013-6-16,81.0,71.7,62.6,66.6,60.1,51.5,100,71,37,29.78,29.71,3,0,12,0.00
2013-6-17,84.0,70.9,59.0,63.6,58.4,51.1,91,67,35,29.86,29.73,12,1,20,0.00
2013-6-18,71.1,61.4,52.6,58.0,51.4,43.9,91,72,41,29.99,29.86,8,2,14,0.00
2013-6-19,76.5,64.1,47.3,56.4,51.0,46.0,98,66,40,30.04,29.95,2,0,9,0.00
2013-6-20,86.3,72.1,57.5,67.2,55.8,45.5,70,57,42,30.03,29.92,3,0,14,0.00
2013-6-21,78.3,70.7,65.2,70.5,65.2,57.4,100,83,68,29.98,29.68,10,1,18,0.76
2013-6-22,79.9,71.9,67.3,73.1,68.8,66.6,100,91,74,29.97,29.75,6,1,14,0.40
2013-6-23,86.5,74.5,64.0,75.7,69.3,64.0,100,85,64,29.89,29.73,6,2,14,0.02
2013-6-24,80.9,73.4,67.9,71.2,68.6,66.5,100,86,68,29.88,29.70,3,1,10,0.00
2013-6-25,83.8,73.4,66.6,74.4,70.1,66.6,100,90,70,29.81,29.68,5,0,12,0.45
2013-6-26,81.6,73.6,68.4,73.2,69.6,67.3,100,88,66,29.68,29.58,3,0,10,0.01
2013-6-27,84.0,75.2,68.4,73.8,69.7,63.2,100,84,58,29.66,29.55,7,0,14,0.15
2013-6-28,74.7,69.4,64.4,66.1,63.4,59.8,96,82,63,29.60,29.49,7,1,13,0.02
2013-6-29,71.6,66.1,63.1,65.7,62.0,56.9,100,87,66,29.73,29.51,10,4,18,0.10
2013-6-30,76.1,66.3,56.2,61.4,53.9,46.8,85,66,38,29.93,29.73,9,3,16,0.00
2013-7-1,78.1,67.2,55.7,59.2,54.1,50.1,87,65,38,30.01,29.93,7,2,14,0.00
2013-7-2,74.7,64.7,55.7,55.7,51.1,44.6,93,64,37,30.01,29.96,8,2,15,0.00
2013-7-3,71.6,65.3,59.5,64.9,59.5,50.0,96,82,69,29.98,29.91,5,1,10,0.00
2013-7-4,83.2,72.1,61.3,64.6,62.4,58.7,100,74,45,29.96,29.89,3,0,12,0.00
2013-7-5,85.1,75.0,63.9,70.3,65.3,62.1,95,74,50,29.93,29.86,5,1,12,0.00
2013-7-6,86.7,74.9,64.8,71.8,66.3,63.0,95,76,54,29.91,29.82,3,0,7,0.00
2013-7-7,88.6,77.8,67.4,75.5,70.6,65.8,98,80,58,29.86,29.77,2,0,7,0.00
2013-7-8,85.5,76.1,71.3,79.3,73.0,69.8,100,91,70,29.86,29.75,7,1,17,0.52
2013-7-9,82.6,75.0,66.1,76.1,72.1,66.1,100,91,77,29.87,29.67,5,1,12,0.17
2013-7-10,76.3,71.8,62.0,73.0,62.7,55.6,100,75,51,29.89,29.69,10,2,20,0.00
2013-7-11,79.2,67.9,55.9,63.1,58.1,54.8,100,74,45,30.01,29.89,5,0,12,0.00
2013-7-12,82.8,70.5,56.2,63.2,57.2,49.4,98,67,33,30.05,29.96,5,0,10,0.00
2013-7-13,84.1,72.8,60.1,68.1,60.9,55.9,90,68,48,30.04,29.96,3,0,12,0.00
2013-7-14,88.2,75.6,59.3,71.3,65.7,58.2,98,73,51,30.11,30.03,2,0,9,0.00
2013-7-15,92.5,78.2,66.8,76.7,70.6,65.4,97,79,52,30.16,30.09,2,0,12,0.00
2013-7-16,91.4,82.3,73.5,79.0,75.4,72.6,98,81,59,30.14,30.08,2,0,7,0.00
2013-7-17,92.6,82.4,73.7,78.3,75.2,72.7,100,80,57,30.15,30.01,3,0,6,0.00
2013-7-18,92.5,83.2,73.3,77.2,74.5,72.8,100,77,54,30.03,29.74,5,1,16,0.00
2013-7-19,90.1,81.8,73.5,74.9,70.8,62.2,90,70,47,29.74,29.58,6,1,17,0.00
2013-7-20,81.8,72.2,63.1,70.8,63.0,56.9,90,74,51,29.85,29.69,5,0,10,0.12
2013-7-21,80.9,66.1,59.2,67.9,61.5,56.6,100,87,59,29.86,29.77,10,1,18,1.00
2013-7-22,84.3,72.6,60.2,72.8,67.4,60.2,100,85,63,29.79,29.50,9,1,13,0.00
2013-7-23,74.0,67.4,57.3,67.0,58.2,52.3,90,73,56,29.89,29.60,12,3,21,0.00
2013-7-24,72.2,61.8,50.4,56.6,52.9,49.6,100,75,50,29.98,29.89,3,0,9,0.00
2013-7-25,80.1,68.6,56.7,65.9,61.3,54.7,97,79,58,29.96,29.84,3,1,8,0.00
2013-7-26,77.7,68.0,59.6,68.6,62.6,55.5,98,84,56,29.84,29.70,6,1,18,0.18
2013-7-27,60.2,55.3,50.2,57.6,49.0,44.7,93,80,64,29.83,29.75,7,2,13,0.00
2013-7-28,66.3,58.3,52.5,55.1,52.0,48.9,95,80,63,29.90,29.73,3,1,12,0.00
2013-7-29,72.3,62.1,53.5,60.2,54.9,50.6,92,78,60,30.07,29.90,5,0,12,0.00
2013-7-30,77.7,66.4,57.8,65.4,61.3,56.2,98,85,59,30.07,29.97,2,0,7,0.00
2013-7-31,80.5,68.4,60.9,69.0,63.2,56.7,99,85,63,29.98,29.83,8,0,20,0.00
2013-8-1,75.8,67.1,59.6,61.5,57.2,51.3,98,73,44,29.87,29.78,6,0,13,0.00
2013-8-2,78.6,69.0,59.9,67.0,60.0,54.4,100,76,45,29.84,29.71,5,0,9,0.12
2013-8-3,74.8,64.6,51.6,57.9,53.9,49.0,100,71,42,30.01,29.84,7,0,13,0.00
2013-8-4,74.6,63.2,51.0,59.1,55.1,50.2,100,77,46,30.12,30.00,0,0,1,0.00
2013-8-5,74.9,64.4,57.3,65.3,60.1,55.7,96,87,66,30.01,29.75,5,0,10,0.00
2013-8-6,84.1,73.6,65.5,71.0,67.6,64.1,100,83,58,29.75,29.64,3,0,9,0.00
2013-8-7,74.9,69.2,61.6,71.1,63.6,59.5,100,83,67,29.86,29.62,9,1,22,0.01
2013-8-8,77.6,67.8,58.7,62.6,58.5,50.8,99,74,47,29.93,29.86,5,1,9,0.00
2013-8-9,78.9,68.0,57.8,63.9,57.5,50.9,87,70,47,29.94,29.85,5,0,12,0.00
2013-8-10,73.6,63.6,51.9,59.4,55.4,50.8,98,77,50,30.04,29.94,3,0,8,0.00
2013-8-11,70.3,62.9,54.4,66.7,61.5,53.1,100,95,86,30.02,29.92,0,0,1,0.27
2013-8-12,77.7,68.5,61.8,67.6,62.4,57.6,100,83,52,29.92,29.78,6,0,13,0.01
2013-8-13,68.9,59.8,49.5,58.8,50.3,46.5,90,72,48,30.07,29.88,9,2,16,0.00
2013-8-14,70.1,58.4,44.8,55.2,50.4,44.8,100,77,48,30.12,30.01,3,0,8,0.00
2013-8-15,77.7,65.3,54.8,61.6,57.0,52.3,98,77,44,30.04,29.97,2,0,3,0.00
2013-8-16,79.4,66.5,52.6,61.2,55.7,49.3,100,72,36,30.08,30.00,0,0,1,0.00
2013-8-17,80.7,66.8,54.2,61.7,57.3,53.1,100,75,43,30.14,30.05,0,0,1,0.00
2013-8-18,80.9,66.9,53.1,62.2,58.3,52.8,100,77,47,30.10,29.97,1,0,8,0.00
2013-8-19,83.2,69.6,57.3,68.2,62.0,57.0,100,79,50,29.99,29.89,2,0,7,0.00
2013-8-20,85.9,73.6,62.9,69.7,66.0,62.0,100,79,53,29.95,29.87,3,0,9,0.00
2013-8-21,87.7,77.1,68.3,73.1,69.0,65.8,93,77,58,29.90,29.77,9,1,17,0.00
2013-8-22,78.8,70.8,63.3,70.9,65.8,53.3,99,85,60,30.00,29.87,8,1,14,0.03
2013-8-23,83.0,68.2,53.1,63.7,58.2,50.9,95,73,45,30.08,30.00,1,0,5,0.00
2013-8-24,83.2,70.3,55.4,69.2,63.0,54.2,96,79,58,30.13,30.03,2,0,7,0.00
2013-8-25,88.2,76.9,67.3,73.1,68.3,62.8,90,76,58,30.06,29.94,6,1,15,0.00
2013-8-26,87.6,78.0,69.4,76.8,71.5,67.0,94,81,59,30.00,29.82,7,0,15,0.00
2013-8-27,92.7,81.4,72.7,76.7,73.8,71.5,98,79,54,29.83,29.66,0,0,0,0.00
2013-8-28,81.6,74.9,66.3,73.8,70.2,65.4,99,86,68,29.93,29.71,7,1,13,0.00
2013-8-29,86.5,74.5,62.1,72.0,68.2,62.1,100,83,57,29.97,29.85,3,0,8,0.00
2013-8-30,91.2,77.4,66.9,78.2,71.6,64.8,98,83,63,29.85,29.64,8,2,17,0.00
2013-8-31,78.6,69.1,60.4,66.9,64.0,59.6,100,85,63,29.76,29.67,3,0,9,0.00
2013-9-1,84.0,71.2,61.6,72.8,65.1,58.5,100,83,49,29.70,29.58,8,1,16,0.00
2013-9-2,68.4,62.4,51.4,61.1,56.1,49.4,94,81,61,29.90,29.70,8,2,15,0.00
2013-9-3,75.4,59.7,46.1,58.6,52.9,45.8,100,81,49,29.99,29.89,1,0,8,0.00
2013-9-4,81.8,66.3,52.5,67.1,59.6,52.3,100,82,51,30.03,29.92,0,0,0,0.00
2013-9-5,74.9,64.2,54.1,62.1,55.5,48.5,99,75,52,30.16,30.03,0,0,0,0.00
2013-9-6,84.0,67.3,49.2,69.3,60.1,47.2,99,79,57,30.12,29.86,0,0,0,0.00
2013-9-7,85.9,74.4,65.8,73.4,68.5,64.0,95,83,63,29.88,29.76,0,0,0,0.03
2013-9-8,71.1,66.5,61.5,66.5,62.4,58.5,93,87,79,29.96,29.83,0,0,0,0.00
2013-9-9,87.7,75.5,64.2,76.3,70.2,62.4,99,85,67,29.86,29.64,0,0,0,0.00
2013-9-10,92.1,79.3,68.9,71.1,67.3,64.2,95,70,40,29.82,29.67,5,0,12,0.00
2013-9-11,79.4,72.2,66.3,70.7,67.4,63.9,100,86,63,29.94,29.82,3,0,12,1.01
2013-9-12,72.3,64.5,54.5,63.8,55.6,46.1,100,75,48,30.03,29.84,13,3,20,0.00
2013-9-13,62.0,52.5,45.4,46.7,43.1,36.3,96,73,39,30.12,30.03,8,2,15,0.00
2013-9-14,69.3,56.3,42.5,52.3,48.1,41.8,100,77,46,30.07,29.89,3,0,7,0.00
2013-9-15,62.0,56.5,53.6,57.0,54.1,48.9,100,92,72,30.14,29.87,8,1,16,0.58
2013-9-16,61.6,51.6,41.5,48.9,44.3,39.9,95,78,53,30.31,30.14,8,2,14,0.00
2013-9-17,68.4,55.2,40.2,56.7,49.7,39.7,100,83,60,30.25,30.00,3,0,12,0.00
2013-9-18,78.1,66.4,58.6,67.6,61.6,55.4,96,85,66,30.00,29.76,6,1,12,0.00
2013-9-19,81.2,70.5,64.8,73.6,68.6,64.5,100,94,70,29.77,29.57,8,1,18,1.91
2013-9-20,70.8,65.1,57.6,66.8,61.4,54.6,100,88,70,29.70,29.58,3,0,12,0.12
2013-9-21,58.4,53.0,44.5,55.1,47.3,44.0,98,82,62,29.85,29.70,8,1,17,0.00
2013-9-22,59.8,49.3,38.3,47.2,42.9,37.9,100,81,50,30.00,29.85,5,1,9,0.00
2013-9-23,65.6,52.9,41.6,53.9,47.8,41.3,100,85,59,30.03,29.94,3,0,12,0.00
2013-9-24,70.3,56.0,46.1,56.4,50.9,45.6,100,85,58,29.96,29.87,5,0,12,0.00
2013-9-25,68.6,55.2,43.3,58.3,50.7,43.3,100,87,60,29.91,29.85,6,0,12,0.00
2013-9-26,73.0,58.9,44.6,61.6,52.9,44.6,100,83,53,29.98,29.89,3,0,9,0.00
2013-9-27,77.2,62.2,47.6,59.8,53.9,47.6,100,77,47,30.03,29.93,6,0,15,0.00
2013-9-28,78.6,64.8,55.0,67.0,57.3,51.1,98,78,55,29.94,29.69,7,2,22,0.15
2013-9-29,67.4,56.5,47.3,54.3,48.9,40.1,100,78,41,29.95,29.84,2,0,6,0.00
2013-9-30,70.6,57.8,46.0,52.7,49.0,45.2,100,75,49,29.89,29.70,5,1,12,0.00
2013-10-1,77.2,63.9,54.4,63.2,57.8,50.4,100,82,57,29.84,29.70,6,1,13,0.00
2013-10-2,72.7,58.5,44.2,55.0,47.0,41.1,100,70,32,30.00,29.84,2,0,12,0.00
2013-10-3,74.2,64.8,54.8,68.1,60.6,43.6,100,87,62,29.87,29.71,9,0,21,2.37
2013-10-4,63.4,61.2,59.2,63.4,61.2,59.2,100,100,100,29.92,29.75,6,1,13,0.49
2013-10-5,72.0,64.7,59.3,72.0,64.6,58.9,100,100,91,29.86,29.61,5,1,12,0.28
2013-10-6,61.3,53.5,46.0,58.9,46.3,41.4,96,78,55,29.64,29.55,3,0,10,0.01
2013-10-7,63.5,51.9,43.6,49.8,45.5,41.7,100,82,45,29.98,29.60,7,0,14,0.05
2013-10-8,71.6,55.5,40.6,55.4,47.9,40.6,100,79,45,30.05,29.97,5,0,12,0.00
2013-10-9,70.6,57.9,47.6,55.7,49.8,45.2,98,77,43,30.10,30.01,3,0,10,0.00
2013-10-10,71.5,56.0,42.8,56.7,49.2,42.8,100,81,46,30.06,29.94,2,0,12,0.00
2013-10-11,73.5,61.0,50.2,61.2,54.5,49.7,100,81,56,29.94,29.80,6,1,16,0.00
2013-10-12,68.8,60.7,47.0,62.3,53.0,39.8,98,77,46,30.03,29.77,5,1,12,0.03
2013-10-13,58.6,48.4,38.3,43.6,39.4,36.3,95,73,44,30.31,30.03,6,0,15,0.00
2013-10-14,60.9,46.6,34.1,46.7,40.6,33.8,100,82,54,30.33,30.03,6,1,17,0.00
2013-10-15,58.4,52.8,45.2,58.4,50.5,43.3,100,92,81,30.03,29.61,5,1,14,0.32
2013-10-16,53.5,50.0,46.8,49.9,47.3,44.0,95,90,84,29.82,29.65,3,0,12,0.00
2013-10-17,53.3,46.6,40.6,45.6,41.0,37.7,95,81,57,29.82,29.69,3,0,10,0.00
2013-10-18,49.6,44.1,39.6,44.5,40.3,37.5,100,87,75,29.83,29.68,5,1,13,0.00
2013-10-19,51.0,41.5,32.9,40.2,36.8,31.9,99,85,52,29.81,29.62,7,0,20,0.01
2013-10-20,48.0,41.5,34.3,46.5,40.1,34.3,100,95,76,29.76,29.60,5,1,14,0.08
2013-10-21,45.5,38.7,32.1,44.2,31.3,23.5,96,75,58,29.84,29.63,7,1,16,0.00
2013-10-22,44.3,36.5,27.5,32.3,27.8,24.1,89,71,53,29.87,29.81,8,0,14,0.00
2013-10-23,41.8,35.1,29.0,32.1,27.2,22.5,92,74,47,29.92,29.85,5,1,10,0.00
2013-10-24,42.1,36.0,29.7,29.2,27.5,25.8,86,72,55,30.19,29.92,7,1,15,0.00
2013-10-25,49.5,40.1,27.9,32.9,29.1,25.0,92,67,47,30.26,29.77,9,2,17,0.00
2013-10-26,48.9,45.1,38.6,37.4,31.5,28.5,80,59,46,29.95,29.65,13,4,23,0.00
2013-10-27,52.0,39.8,28.2,34.6,30.8,26.4,96,72,44,29.94,29.79,13,1,17,0.00
2013-10-28,43.5,39.3,36.3,34.2,31.1,28.8,85,73,61,30.34,29.93,9,3,20,0.00
2013-10-29,53.8,41.5,33.7,43.5,35.9,26.6,99,81,64,30.32,30.04,7,1,13,0.00
2013-10-30,54.5,49.5,40.0,53.5,48.7,39.8,100,97,89,30.04,29.64,5,0,13,0.00
2013-10-31,60.2,54.0,42.9,60.2,53.9,41.0,100,100,93,29.64,29.13,7,1,16,0.98
2013-11-1,44.8,43.2,41.6,43.2,41.4,39.4,99,93,88,29.64,29.17,8,1,16,0.06
2013-11-2,42.3,40.1,36.6,40.6,38.9,35.5,100,95,87,30.05,29.64,10,1,15,0.09
2013-11-3,48.0,39.0,29.0,43.3,35.0,29.0,100,87,61,30.21,30.05,6,1,20,0.00
2013-11-4,51.7,47.7,42.5,46.4,40.8,37.2,90,77,65,30.13,29.93,8,3,20,0.00
2013-11-5,54.2,50.0,46.0,51.3,48.3,44.6,100,94,79,30.14,29.74,7,1,15,0.40
2013-11-6,53.2,42.5,32.5,53.2,38.8,25.3,100,87,62,30.04,29.59,12,5,22,0.19
2013-11-7,40.1,33.5,27.2,31.1,28.3,24.4,94,81,64,30.14,30.04,7,1,13,0.00
2013-11-8,44.3,35.9,23.3,35.5,30.8,22.3,99,83,70,30.20,29.71,8,2,17,0.00
2013-11-9,51.0,45.1,39.5,40.7,35.8,25.1,85,70,53,29.95,29.63,18,6,28,0.00
2013-11-10,45.8,41.4,38.8,33.9,30.4,27.4,75,65,50,30.21,29.95,13,4,21,0.00
2013-11-11,42.2,32.0,24.1,35.0,24.3,12.9,98,74,57,30.47,29.95,15,5,25,0.04
2013-11-12,27.9,22.7,17.8,16.8,14.1,10.1,81,70,48,30.64,30.47,8,2,14,0.00
2013-11-13,40.2,29.5,18.3,21.7,17.8,14.2,85,64,39,30.48,29.96,12,5,22,0.00
2013-11-14,46.1,36.9,29.0,33.2,27.1,20.9,83,68,52,29.96,29.77,7,3,12,0.00
2013-11-15,52.0,39.9,29.5,39.4,33.6,27.7,96,79,61,29.83,29.77,3,1,8,0.00
2013-11-16,56.0,46.2,34.7,54.4,45.3,32.5,100,97,89,29.78,29.36,10,4,18,0.06
2013-11-17,55.9,49.3,39.8,54.6,47.2,32.8,100,92,75,29.52,29.03,17,6,31,0.67
2013-11-18,39.6,32.9,26.3,33.6,25.0,21.4,84,72,63,30.16,29.52,16,8,30,0.00
2013-11-19,38.8,29.7,19.9,30.1,24.0,18.0,95,80,59,30.29,30.16,6,1,13,0.00
2013-11-20,41.2,36.4,30.7,35.0,30.0,27.2,95,79,58,30.16,30.00,6,2,16,0.00
2013-11-21,42.3,39.1,36.3,38.8,36.6,34.9,96,91,82,30.16,30.01,7,1,14,0.00
2013-11-22,37.4,29.9,24.1,35.2,23.8,14.2,97,79,59,30.38,30.15,13,5,23,0.00
2013-11-23,26.3,17.1,11.2,16.8,5.5,0.9,71,60,49,30.65,30.31,16,7,29,0.00
2013-11-24,26.1,17.4,7.9,10.0,6.2,2.6,82,62,42,30.63,30.18,10,4,20,0.00
2013-11-25,31.2,26.0,21.0,26.0,20.4,9.7,93,80,59,30.16,29.91,10,4,20,0.00
2013-11-26,31.5,24.6,12.3,26.7,15.6,3.0,87,69,52,30.13,29.92,14,4,22,0.00
2013-11-27,25.0,18.0,10.4,15.9,9.7,3.7,83,70,52,30.19,30.12,13,3,16,0.00
2013-11-28,27.8,21.8,10.2,16.5,14.0,6.6,87,72,59,30.43,30.09,10,2,16,0.00
2013-11-29,30.3,20.2,6.5,21.3,14.5,3.5,93,79,60,30.56,30.28,3,0,8,0.00
2013-11-30,41.1,31.9,26.3,31.7,26.6,21.3,92,81,68,30.27,29.94,7,2,12,0.03
2013-12-1,38.0,30.2,24.1,29.1,25.4,21.6,94,83,63,30.06,29.91,7,2,13,0.01
2013-12-2,40.1,31.5,19.2,33.4,28.0,17.8,99,87,73,29.91,29.67,7,1,15,0.00
2013-12-3,37.9,35.7,33.5,37.9,35.6,33.0,100,100,97,29.67,29.60,8,3,16,0.17
2013-12-4,46.7,39.8,34.3,46.7,39.8,31.9,100,100,91,29.67,29.32,12,3,20,0.03
2013-12-5,34.1,21.7,12.8,31.5,14.4,5.2,90,73,61,30.20,29.49,9,5,20,0.00
2013-12-6,13.6,9.2,5.2,5.2,1.0,-1.2,77,69,58,30.50,30.18,10,5,20,0.00
2013-12-7,12.4,5.3,-0.4,1.4,-3.1,-6.4,77,68,51,30.65,30.50,7,2,16,0.00
2013-12-8,19.2,13.1,3.2,17.3,7.3,-2.7,92,78,59,30.56,29.90,9,3,16,0.00
2013-12-9,15.9,8.5,-3.9,13.5,3.1,-9.6,90,79,62,30.11,29.86,7,2,17,0.00
2013-12-10,16.9,7.1,-5.6,10.1,0.4,-10.6,84,74,63,30.19,29.85,8,2,17,0.00
2013-12-11,12.6,3.8,-8.4,9.2,-4.3,-15.1,87,69,54,30.46,30.18,12,2,18,0.00
2013-12-12,17.2,8.8,-5.2,10.2,1.4,-12.0,79,72,62,30.43,30.13,6,2,9,0.00
2013-12-13,21.0,16.7,10.4,13.6,11.0,6.1,88,78,69,30.17,30.08,12,4,21,0.00
2013-12-14,22.1,19.2,17.2,19.4,16.3,12.6,91,88,82,30.15,29.85,10,5,17,0.00
2013-12-15,19.2,8.4,-0.4,17.0,-0.2,-10.1,91,68,54,30.07,29.84,12,5,20,0.00
2013-12-16,15.6,6.1,-6.3,11.2,-0.4,-12.5,90,75,59,30.10,29.95,3,0,8,0.00
2013-12-17,31.9,23.2,13.5,24.8,18.1,10.6,94,81,67,29.98,29.81,10,3,20,0.00
2013-12-18,31.8,20.2,5.4,22.7,12.9,0.6,87,74,59,30.01,29.67,9,2,16,0.00
2013-12-19,27.6,22.6,15.2,24.7,19.5,13.3,95,88,77,29.93,29.70,13,4,22,0.00
2013-12-20,23.6,21.6,19.9,22.1,19.5,17.4,96,92,89,29.83,29.74,13,7,20,0.00
2013-12-21,25.6,23.6,21.3,25.4,22.8,20.3,99,96,93,29.82,29.66,12,3,24,0.00
2013-12-22,25.4,21.8,14.1,24.2,19.8,12.0,96,92,85,30.03,29.64,16,7,24,0.00
2013-12-23,19.2,13.1,2.8,17.5,9.7,-2.0,94,86,79,30.34,30.04,6,1,12,0.00
2013-12-24,8.6,-0.3,-15.3,5.3,-5.4,-21.2,86,78,70,30.48,30.26,5,0,9,0.00
2013-12-25,22.7,18.4,8.6,19.9,15.0,5.3,92,87,77,30.25,29.99,6,1,15,0.00
2013-12-26,23.2,17.7,6.3,18.8,13.4,2.7,91,83,73,30.16,30.00,6,1,12,0.00
2013-12-27,31.9,20.5,2.0,27.9,17.1,-1.7,93,87,79,30.18,29.91,8,2,13,0.00
2013-12-28,38.9,30.0,20.0,32.0,26.6,19.0,99,87,76,29.96,29.66,8,3,12,0.08
2013-12-29,32.7,16.6,-6.3,30.3,11.2,-13.5,97,79,60,30.16,29.62,16,6,27,0.00
2013-12-30,2.4,-5.4,-18.4,-3.4,-13.2,-24.7,80,68,53,30.29,30.16,3,0,8,0.00
2013-12-31,6.9,2.8,-3.3,0.1,-4.2,-12.5,80,72,60,30.33,30.15,9,1,16,0.00
2014-1-1,7.4,2.8,-3.7,-1.1,-6.0,-12.6,69,66,61,30.35,30.27,13,5,18,0.00
2014-1-2,7.9,2.6,-11.5,0.3,-4.3,-17.7,80,72,62,30.38,30.23,13,6,20,0.00